sensor_id;sensor_type;location;lat;lon;timestamp;P1;durP1;ratioP1;P2;durP2;ratioP2
13197;SDS011;6664;52.514;13.440;2023-07-31T00:01:15;1.67;;;1.33;;
13197;SDS011;6664;52.514;13.440;2023-07-31T00:04:00;2.40;;;1.17;;
13197;SDS011;6664;52.514;13.440;2023-07-31T00:06:48;2.70;;;1.30;;
13197;SDS011;6664;52.514;13.440;2023-07-31T00:09:37;2.63;;;1.43;;
13197;SDS011;6664;52.514;13.440;2023-07-31T00:12:22;2.57;;;1.07;;
13197;SDS011;6664;52.514;13.440;2023-07-31T00:15:08;2.43;;;1.10;;
13197;SDS011;6664;52.514;13.440;2023-07-31T00:17:57;2.70;;;1.53;;
13197;SDS011;6664;52.514;13.440;2023-07-31T00:20:45;2.30;;;1.20;;
13197;SDS011;6664;52.514;13.440;2023-07-31T00:23:31;1.53;;;0.90;;
13197;SDS011;6664;52.514;13.440;2023-07-31T00:26:17;2.63;;;1.33;;
13197;SDS011;6664;52.514;13.440;2023-07-31T00:29:02;2.57;;;1.37;;
13197;SDS011;6664;52.514;13.440;2023-07-31T00:31:48;3.83;;;1.43;;
13197;SDS011;6664;52.514;13.440;2023-07-31T00:34:34;1.30;;;1.17;;
13197;SDS011;6664;52.514;13.440;2023-07-31T00:37:21;2.03;;;1.50;;
13197;SDS011;6664;52.514;13.440;2023-07-31T00:40:07;2.40;;;1.27;;
13197;SDS011;6664;52.514;13.440;2023-07-31T00:42:54;2.83;;;1.37;;
13197;SDS011;6664;52.514;13.440;2023-07-31T00:45:47;5.77;;;1.73;;
13197;SDS011;6664;52.514;13.440;2023-07-31T00:48:33;1.87;;;1.30;;
13197;SDS011;6664;52.514;13.440;2023-07-31T00:51:19;4.73;;;1.43;;
13197;SDS011;6664;52.514;13.440;2023-07-31T00:54:05;1.37;;;1.27;;
13197;SDS011;6664;52.514;13.440;2023-07-31T00:56:51;1.80;;;1.50;;
13197;SDS011;6664;52.514;13.440;2023-07-31T00:59:39;1.60;;;1.10;;
13197;SDS011;6664;52.514;13.440;2023-07-31T01:02:24;1.50;;;1.40;;
13197;SDS011;6664;52.514;13.440;2023-07-31T01:05:10;2.10;;;1.50;;
13197;SDS011;6664;52.514;13.440;2023-07-31T01:07:59;1.27;;;1.17;;
13197;SDS011;6664;52.514;13.440;2023-07-31T01:11:00;1.87;;;1.43;;
13197;SDS011;6664;52.514;13.440;2023-07-31T01:13:56;3.87;;;1.80;;
13197;SDS011;6664;52.514;13.440;2023-07-31T01:16:43;1.63;;;1.50;;
13197;SDS011;6664;52.514;13.440;2023-07-31T01:19:29;2.93;;;1.60;;
13197;SDS011;6664;52.514;13.440;2023-07-31T01:28:53;4.27;;;1.77;;
13197;SDS011;6664;52.514;13.440;2023-07-31T01:31:54;2.63;;;1.60;;
13197;SDS011;6664;52.514;13.440;2023-07-31T01:34:41;3.47;;;1.47;;
13197;SDS011;6664;52.514;13.440;2023-07-31T01:37:30;1.90;;;1.77;;
13197;SDS011;6664;52.514;13.440;2023-07-31T01:40:17;3.13;;;1.73;;
13197;SDS011;6664;52.514;13.440;2023-07-31T01:43:05;2.57;;;1.50;;
13197;SDS011;6664;52.514;13.440;2023-07-31T01:45:50;5.07;;;1.57;;
13197;SDS011;6664;52.514;13.440;2023-07-31T01:48:36;4.00;;;1.70;;
13197;SDS011;6664;52.514;13.440;2023-07-31T01:51:23;1.87;;;1.63;;
13197;SDS011;6664;52.514;13.440;2023-07-31T01:54:12;3.03;;;1.80;;
13197;SDS011;6664;52.514;13.440;2023-07-31T01:56:58;4.23;;;1.90;;
13197;SDS011;6664;52.514;13.440;2023-07-31T01:59:43;3.87;;;1.87;;
13197;SDS011;6664;52.514;13.440;2023-07-31T02:02:31;2.70;;;1.57;;
13197;SDS011;6664;52.514;13.440;2023-07-31T02:05:20;2.90;;;1.70;;
13197;SDS011;6664;52.514;13.440;2023-07-31T02:08:05;1.87;;;1.77;;
13197;SDS011;6664;52.514;13.440;2023-07-31T02:10:51;3.53;;;1.70;;
13197;SDS011;6664;52.514;13.440;2023-07-31T02:13:37;1.63;;;1.43;;
13197;SDS011;6664;52.514;13.440;2023-07-31T02:16:23;1.93;;;1.23;;
13197;SDS011;6664;52.514;13.440;2023-07-31T02:19:11;1.50;;;1.40;;
13197;SDS011;6664;52.514;13.440;2023-07-31T02:21:59;3.30;;;1.90;;
13197;SDS011;6664;52.514;13.440;2023-07-31T02:24:46;4.53;;;1.80;;
13197;SDS011;6664;52.514;13.440;2023-07-31T02:27:32;1.90;;;1.80;;
13197;SDS011;6664;52.514;13.440;2023-07-31T02:30:18;2.87;;;2.03;;
13197;SDS011;6664;52.514;13.440;2023-07-31T02:33:04;2.67;;;1.47;;
13197;SDS011;6664;52.514;13.440;2023-07-31T02:35:50;1.70;;;1.60;;
13197;SDS011;6664;52.514;13.440;2023-07-31T02:38:35;2.90;;;1.77;;
13197;SDS011;6664;52.514;13.440;2023-07-31T02:41:21;3.00;;;2.00;;
13197;SDS011;6664;52.514;13.440;2023-07-31T02:44:07;4.03;;;1.80;;
13197;SDS011;6664;52.514;13.440;2023-07-31T02:46:55;1.67;;;1.57;;
13197;SDS011;6664;52.514;13.440;2023-07-31T02:49:41;5.17;;;2.20;;
13197;SDS011;6664;52.514;13.440;2023-07-31T02:52:26;1.70;;;1.43;;
13197;SDS011;6664;52.514;13.440;2023-07-31T02:55:12;1.73;;;1.57;;
13197;SDS011;6664;52.514;13.440;2023-07-31T02:57:59;3.43;;;2.10;;
13197;SDS011;6664;52.514;13.440;2023-07-31T03:00:45;2.03;;;1.67;;
13197;SDS011;6664;52.514;13.440;2023-07-31T03:03:30;2.70;;;1.80;;
13197;SDS011;6664;52.514;13.440;2023-07-31T03:06:16;3.83;;;1.80;;
13197;SDS011;6664;52.514;13.440;2023-07-31T03:09:04;1.87;;;1.77;;
13197;SDS011;6664;52.514;13.440;2023-07-31T03:11:50;1.87;;;1.77;;
13197;SDS011;6664;52.514;13.440;2023-07-31T03:14:35;6.40;;;2.50;;
13197;SDS011;6664;52.514;13.440;2023-07-31T03:17:22;2.40;;;2.20;;
13197;SDS011;6664;52.514;13.440;2023-07-31T03:20:07;5.77;;;2.00;;
13197;SDS011;6664;52.514;13.440;2023-07-31T03:22:53;2.90;;;2.03;;
13197;SDS011;6664;52.514;13.440;2023-07-31T03:25:41;2.10;;;1.90;;
13197;SDS011;6664;52.514;13.440;2023-07-31T03:28:40;3.70;;;2.27;;
13197;SDS011;6664;52.514;13.440;2023-07-31T03:31:25;7.00;;;2.53;;
13197;SDS011;6664;52.514;13.440;2023-07-31T03:34:11;2.80;;;2.57;;
13197;SDS011;6664;52.514;13.440;2023-07-31T03:36:57;2.40;;;2.20;;
13197;SDS011;6664;52.514;13.440;2023-07-31T03:39:43;3.53;;;2.07;;
13197;SDS011;6664;52.514;13.440;2023-07-31T03:42:29;2.60;;;2.40;;
13197;SDS011;6664;52.514;13.440;2023-07-31T03:45:14;3.17;;;2.60;;
13197;SDS011;6664;52.514;13.440;2023-07-31T03:48:00;3.43;;;2.53;;
13197;SDS011;6664;52.514;13.440;2023-07-31T03:50:46;5.70;;;2.80;;
13197;SDS011;6664;52.514;13.440;2023-07-31T03:53:31;7.13;;;2.37;;
13197;SDS011;6664;52.514;13.440;2023-07-31T03:56:19;6.60;;;2.73;;
13197;SDS011;6664;52.514;13.440;2023-07-31T03:59:04;3.43;;;2.90;;
13197;SDS011;6664;52.514;13.440;2023-07-31T04:01:52;5.90;;;3.03;;
13197;SDS011;6664;52.514;13.440;2023-07-31T04:04:38;3.40;;;3.10;;
13197;SDS011;6664;52.514;13.440;2023-07-31T04:07:23;3.40;;;2.67;;
13197;SDS011;6664;52.514;13.440;2023-07-31T04:10:09;6.00;;;2.17;;
13197;SDS011;6664;52.514;13.440;2023-07-31T04:12:58;2.50;;;2.30;;
13197;SDS011;6664;52.514;13.440;2023-07-31T04:15:47;3.20;;;2.90;;
13197;SDS011;6664;52.514;13.440;2023-07-31T04:18:34;4.90;;;2.90;;
13197;SDS011;6664;52.514;13.440;2023-07-31T04:21:20;3.33;;;2.50;;
13197;SDS011;6664;52.514;13.440;2023-07-31T04:24:05;4.53;;;2.40;;
13197;SDS011;6664;52.514;13.440;2023-07-31T04:26:52;2.60;;;2.40;;
13197;SDS011;6664;52.514;13.440;2023-07-31T04:29:38;3.63;;;2.20;;
13197;SDS011;6664;52.514;13.440;2023-07-31T04:32:24;4.93;;;2.93;;
13197;SDS011;6664;52.514;13.440;2023-07-31T04:35:10;8.33;;;2.53;;
13197;SDS011;6664;52.514;13.440;2023-07-31T04:37:55;5.10;;;2.67;;
13197;SDS011;6664;52.514;13.440;2023-07-31T04:40:41;2.93;;;2.70;;
13197;SDS011;6664;52.514;13.440;2023-07-31T04:43:27;2.93;;;2.73;;
13197;SDS011;6664;52.514;13.440;2023-07-31T04:46:12;2.17;;;2.00;;
13197;SDS011;6664;52.514;13.440;2023-07-31T04:48:58;3.23;;;2.53;;
13197;SDS011;6664;52.514;13.440;2023-07-31T04:51:48;4.10;;;2.47;;
13197;SDS011;6664;52.514;13.440;2023-07-31T04:54:33;2.43;;;2.23;;
13197;SDS011;6664;52.514;13.440;2023-07-31T04:57:19;4.37;;;2.80;;
13197;SDS011;6664;52.514;13.440;2023-07-31T05:00:04;2.60;;;2.40;;
13197;SDS011;6664;52.514;13.440;2023-07-31T05:02:51;4.93;;;3.20;;
13197;SDS011;6664;52.514;13.440;2023-07-31T05:05:36;4.10;;;2.30;;
13197;SDS011;6664;52.514;13.440;2023-07-31T05:08:22;6.83;;;2.60;;
13197;SDS011;6664;52.514;13.440;2023-07-31T05:11:08;4.17;;;2.30;;
13197;SDS011;6664;52.514;13.440;2023-07-31T05:13:53;3.47;;;2.10;;
13197;SDS011;6664;52.514;13.440;2023-07-31T05:16:39;8.23;;;2.60;;
13197;SDS011;6664;52.514;13.440;2023-07-31T05:19:25;2.37;;;2.00;;
13197;SDS011;6664;52.514;13.440;2023-07-31T05:22:11;2.93;;;2.00;;
13197;SDS011;6664;52.514;13.440;2023-07-31T05:24:56;2.90;;;2.23;;
13197;SDS011;6664;52.514;13.440;2023-07-31T05:27:47;2.10;;;1.90;;
13197;SDS011;6664;52.514;13.440;2023-07-31T05:30:32;3.00;;;2.30;;
13197;SDS011;6664;52.514;13.440;2023-07-31T05:33:18;2.73;;;2.20;;
13197;SDS011;6664;52.514;13.440;2023-07-31T05:36:05;5.13;;;2.10;;
13197;SDS011;6664;52.514;13.440;2023-07-31T05:38:53;4.80;;;2.10;;
13197;SDS011;6664;52.514;13.440;2023-07-31T05:41:38;2.20;;;2.00;;
13197;SDS011;6664;52.514;13.440;2023-07-31T05:44:26;3.40;;;1.90;;
13197;SDS011;6664;52.514;13.440;2023-07-31T05:47:14;2.50;;;2.07;;
13197;SDS011;6664;52.514;13.440;2023-07-31T05:50:02;7.30;;;2.43;;
13197;SDS011;6664;52.514;13.440;2023-07-31T05:52:47;3.30;;;1.67;;
13197;SDS011;6664;52.514;13.440;2023-07-31T05:55:32;4.50;;;2.20;;
13197;SDS011;6664;52.514;13.440;2023-07-31T05:58:18;2.60;;;1.80;;
13197;SDS011;6664;52.514;13.440;2023-07-31T06:01:06;3.57;;;2.40;;
13197;SDS011;6664;52.514;13.440;2023-07-31T06:03:52;5.03;;;1.80;;
13197;SDS011;6664;52.514;13.440;2023-07-31T06:06:38;6.73;;;1.93;;
13197;SDS011;6664;52.514;13.440;2023-07-31T06:09:26;3.50;;;2.10;;
13197;SDS011;6664;52.514;13.440;2023-07-31T06:12:14;4.57;;;2.03;;
13197;SDS011;6664;52.514;13.440;2023-07-31T06:15:05;2.40;;;1.77;;
13197;SDS011;6664;52.514;13.440;2023-07-31T06:17:51;2.13;;;1.67;;
13197;SDS011;6664;52.514;13.440;2023-07-31T06:20:37;2.93;;;2.30;;
13197;SDS011;6664;52.514;13.440;2023-07-31T06:23:25;3.20;;;2.10;;
13197;SDS011;6664;52.514;13.440;2023-07-31T06:26:10;3.83;;;2.10;;
13197;SDS011;6664;52.514;13.440;2023-07-31T06:28:56;2.07;;;1.50;;
13197;SDS011;6664;52.514;13.440;2023-07-31T06:31:42;2.30;;;2.10;;
13197;SDS011;6664;52.514;13.440;2023-07-31T06:34:30;5.43;;;1.80;;
13197;SDS011;6664;52.514;13.440;2023-07-31T06:37:15;7.30;;;2.20;;
13197;SDS011;6664;52.514;13.440;2023-07-31T06:40:01;1.70;;;1.60;;
13197;SDS011;6664;52.514;13.440;2023-07-31T06:42:47;2.37;;;1.67;;
13197;SDS011;6664;52.514;13.440;2023-07-31T06:45:32;7.13;;;1.93;;
13197;SDS011;6664;52.514;13.440;2023-07-31T06:48:18;2.97;;;1.73;;
13197;SDS011;6664;52.514;13.440;2023-07-31T06:51:03;6.07;;;1.80;;
13197;SDS011;6664;52.514;13.440;2023-07-31T06:53:49;4.17;;;2.00;;
13197;SDS011;6664;52.514;13.440;2023-07-31T06:56:35;2.23;;;2.03;;
13197;SDS011;6664;52.514;13.440;2023-07-31T06:59:24;1.57;;;1.47;;
13197;SDS011;6664;52.514;13.440;2023-07-31T07:02:12;2.33;;;1.70;;
13197;SDS011;6664;52.514;13.440;2023-07-31T07:04:58;3.10;;;1.40;;
13197;SDS011;6664;52.514;13.440;2023-07-31T07:07:44;1.50;;;1.40;;
13197;SDS011;6664;52.514;13.440;2023-07-31T07:10:30;2.50;;;1.50;;
13197;SDS011;6664;52.514;13.440;2023-07-31T07:13:15;1.77;;;1.67;;
13197;SDS011;6664;52.514;13.440;2023-07-31T07:16:05;6.00;;;1.43;;
13197;SDS011;6664;52.514;13.440;2023-07-31T07:18:51;4.50;;;2.43;;
13197;SDS011;6664;52.514;13.440;2023-07-31T07:21:51;3.60;;;1.63;;
13197;SDS011;6664;52.514;13.440;2023-07-31T07:24:37;3.17;;;1.70;;
13197;SDS011;6664;52.514;13.440;2023-07-31T07:27:23;1.70;;;1.60;;
13197;SDS011;6664;52.514;13.440;2023-07-31T07:30:11;1.90;;;1.50;;
13197;SDS011;6664;52.514;13.440;2023-07-31T07:32:56;5.10;;;2.07;;
13197;SDS011;6664;52.514;13.440;2023-07-31T07:35:41;2.93;;;1.57;;
13197;SDS011;6664;52.514;13.440;2023-07-31T07:38:27;3.23;;;1.80;;
13197;SDS011;6664;52.514;13.440;2023-07-31T07:41:15;1.47;;;1.37;;
13197;SDS011;6664;52.514;13.440;2023-07-31T07:44:01;2.57;;;1.60;;
13197;SDS011;6664;52.514;13.440;2023-07-31T07:46:46;2.40;;;1.67;;
13197;SDS011;6664;52.514;13.440;2023-07-31T07:49:33;3.83;;;1.60;;
13197;SDS011;6664;52.514;13.440;2023-07-31T07:52:20;1.50;;;1.40;;
13197;SDS011;6664;52.514;13.440;2023-07-31T07:55:06;3.00;;;1.97;;
13197;SDS011;6664;52.514;13.440;2023-07-31T07:57:52;2.90;;;1.83;;
13197;SDS011;6664;52.514;13.440;2023-07-31T08:00:37;2.63;;;1.57;;
13197;SDS011;6664;52.514;13.440;2023-07-31T08:03:25;3.37;;;1.70;;
13197;SDS011;6664;52.514;13.440;2023-07-31T08:06:11;3.57;;;1.63;;
13197;SDS011;6664;52.514;13.440;2023-07-31T08:08:56;1.13;;;1.07;;
13197;SDS011;6664;52.514;13.440;2023-07-31T08:11:42;1.40;;;1.20;;
13197;SDS011;6664;52.514;13.440;2023-07-31T08:14:28;1.37;;;1.10;;
13197;SDS011;6664;52.514;13.440;2023-07-31T08:17:19;4.10;;;1.23;;
13197;SDS011;6664;52.514;13.440;2023-07-31T08:20:05;1.47;;;1.37;;
13197;SDS011;6664;52.514;13.440;2023-07-31T08:22:51;3.53;;;1.50;;
13197;SDS011;6664;52.514;13.440;2023-07-31T08:25:37;2.10;;;1.17;;
13197;SDS011;6664;52.514;13.440;2023-07-31T08:28:23;1.23;;;1.13;;
13197;SDS011;6664;52.514;13.440;2023-07-31T08:31:09;1.47;;;1.27;;
13197;SDS011;6664;52.514;13.440;2023-07-31T08:33:55;1.47;;;0.90;;
13197;SDS011;6664;52.514;13.440;2023-07-31T08:36:44;1.43;;;1.30;;
13197;SDS011;6664;52.514;13.440;2023-07-31T08:39:29;1.73;;;1.30;;
13197;SDS011;6664;52.514;13.440;2023-07-31T08:42:15;1.90;;;1.37;;
13197;SDS011;6664;52.514;13.440;2023-07-31T08:45:00;1.87;;;1.27;;
13197;SDS011;6664;52.514;13.440;2023-07-31T08:47:49;3.00;;;1.40;;
13197;SDS011;6664;52.514;13.440;2023-07-31T08:50:36;2.30;;;1.50;;
13197;SDS011;6664;52.514;13.440;2023-07-31T08:53:23;2.23;;;1.60;;
13197;SDS011;6664;52.514;13.440;2023-07-31T08:56:08;2.53;;;1.43;;
13197;SDS011;6664;52.514;13.440;2023-07-31T08:58:56;1.30;;;1.30;;
13197;SDS011;6664;52.514;13.440;2023-07-31T09:01:47;1.73;;;1.20;;
13197;SDS011;6664;52.514;13.440;2023-07-31T09:04:35;1.30;;;1.20;;
13197;SDS011;6664;52.514;13.440;2023-07-31T09:07:21;1.70;;;1.40;;
13197;SDS011;6664;52.514;13.440;2023-07-31T09:10:09;5.90;;;1.73;;
13197;SDS011;6664;52.514;13.440;2023-07-31T09:12:55;2.87;;;1.37;;
13197;SDS011;6664;52.514;13.440;2023-07-31T09:15:44;2.20;;;1.43;;
13197;SDS011;6664;52.514;13.440;2023-07-31T09:18:31;1.73;;;1.30;;
13197;SDS011;6664;52.514;13.440;2023-07-31T09:21:19;2.03;;;1.40;;
13197;SDS011;6664;52.514;13.440;2023-07-31T09:24:05;1.47;;;1.03;;
13197;SDS011;6664;52.514;13.440;2023-07-31T09:26:50;2.10;;;1.57;;
13197;SDS011;6664;52.514;13.440;2023-07-31T09:29:41;2.00;;;1.10;;
13197;SDS011;6664;52.514;13.440;2023-07-31T09:32:26;1.33;;;1.27;;
13197;SDS011;6664;52.514;13.440;2023-07-31T09:38:06;3.00;;;1.17;;
13197;SDS011;6664;52.514;13.440;2023-07-31T09:40:58;1.50;;;1.17;;
13197;SDS011;6664;52.514;13.440;2023-07-31T09:43:52;1.63;;;1.00;;
13197;SDS011;6664;52.514;13.440;2023-07-31T09:46:39;1.93;;;0.90;;
13197;SDS011;6664;52.514;13.440;2023-07-31T09:49:26;1.37;;;1.10;;
13197;SDS011;6664;52.514;13.440;2023-07-31T09:52:14;1.47;;;1.17;;
13197;SDS011;6664;52.514;13.440;2023-07-31T09:55:00;2.23;;;0.90;;
13197;SDS011;6664;52.514;13.440;2023-07-31T09:57:47;0.77;;;0.70;;
13197;SDS011;6664;52.514;13.440;2023-07-31T10:00:33;1.60;;;0.80;;
13197;SDS011;6664;52.514;13.440;2023-07-31T10:03:19;1.23;;;1.10;;
13197;SDS011;6664;52.514;13.440;2023-07-31T10:06:08;1.00;;;1.00;;
13197;SDS011;6664;52.514;13.440;2023-07-31T10:08:57;5.90;;;1.20;;
13197;SDS011;6664;52.514;13.440;2023-07-31T10:11:53;1.40;;;1.30;;
13197;SDS011;6664;52.514;13.440;2023-07-31T10:14:44;1.90;;;1.23;;
13197;SDS011;6664;52.514;13.440;2023-07-31T10:17:30;1.77;;;1.20;;
13197;SDS011;6664;52.514;13.440;2023-07-31T10:20:17;1.47;;;1.10;;
13197;SDS011;6664;52.514;13.440;2023-07-31T10:23:05;6.93;;;1.50;;
13197;SDS011;6664;52.514;13.440;2023-07-31T10:25:53;2.03;;;1.57;;
13197;SDS011;6664;52.514;13.440;2023-07-31T10:28:39;1.90;;;1.80;;
13197;SDS011;6664;52.514;13.440;2023-07-31T10:31:26;2.43;;;1.90;;
13197;SDS011;6664;52.514;13.440;2023-07-31T10:34:13;1.93;;;1.83;;
13197;SDS011;6664;52.514;13.440;2023-07-31T10:40:15;2.70;;;2.20;;
13197;SDS011;6664;52.514;13.440;2023-07-31T10:43:05;4.33;;;1.80;;
13197;SDS011;6664;52.514;13.440;2023-07-31T10:45:53;2.47;;;2.27;;
13197;SDS011;6664;52.514;13.440;2023-07-31T10:48:39;2.63;;;2.10;;
13197;SDS011;6664;52.514;13.440;2023-07-31T10:51:35;4.50;;;2.13;;
13197;SDS011;6664;52.514;13.440;2023-07-31T10:54:21;5.83;;;2.30;;
13197;SDS011;6664;52.514;13.440;2023-07-31T10:57:18;3.57;;;2.20;;
13197;SDS011;6664;52.514;13.440;2023-07-31T11:03:14;3.37;;;1.80;;
13197;SDS011;6664;52.514;13.440;2023-07-31T11:06:07;2.83;;;2.00;;
13197;SDS011;6664;52.514;13.440;2023-07-31T11:08:58;3.67;;;1.77;;
13197;SDS011;6664;52.514;13.440;2023-07-31T11:11:43;1.90;;;1.80;;
13197;SDS011;6664;52.514;13.440;2023-07-31T11:14:29;2.17;;;1.97;;
13197;SDS011;6664;52.514;13.440;2023-07-31T11:17:14;5.50;;;1.77;;
13197;SDS011;6664;52.514;13.440;2023-07-31T11:20:00;1.50;;;1.40;;
13197;SDS011;6664;52.514;13.440;2023-07-31T11:22:46;7.93;;;2.43;;
13197;SDS011;6664;52.514;13.440;2023-07-31T11:25:35;3.47;;;1.70;;
13197;SDS011;6664;52.514;13.440;2023-07-31T11:28:24;2.20;;;2.00;;
13197;SDS011;6664;52.514;13.440;2023-07-31T11:31:17;2.83;;;1.87;;
13197;SDS011;6664;52.514;13.440;2023-07-31T11:34:05;4.40;;;2.10;;
13197;SDS011;6664;52.514;13.440;2023-07-31T11:36:52;4.47;;;1.73;;
13197;SDS011;6664;52.514;13.440;2023-07-31T11:39:39;3.13;;;1.90;;
13197;SDS011;6664;52.514;13.440;2023-07-31T11:42:25;5.63;;;2.33;;
13197;SDS011;6664;52.514;13.440;2023-07-31T11:45:11;6.77;;;1.90;;
13197;SDS011;6664;52.514;13.440;2023-07-31T11:47:56;3.33;;;1.83;;
13197;SDS011;6664;52.514;13.440;2023-07-31T11:50:42;2.60;;;1.90;;
13197;SDS011;6664;52.514;13.440;2023-07-31T11:53:29;2.83;;;1.80;;
13197;SDS011;6664;52.514;13.440;2023-07-31T11:56:30;1.67;;;1.57;;
13197;SDS011;6664;52.514;13.440;2023-07-31T11:59:15;1.60;;;1.50;;
13197;SDS011;6664;52.514;13.440;2023-07-31T12:02:01;4.17;;;1.60;;
13197;SDS011;6664;52.514;13.440;2023-07-31T12:04:47;3.90;;;1.90;;
13197;SDS011;6664;52.514;13.440;2023-07-31T12:07:46;4.10;;;2.10;;
13197;SDS011;6664;52.514;13.440;2023-07-31T12:10:35;2.23;;;2.03;;
13197;SDS011;6664;52.514;13.440;2023-07-31T12:13:24;2.63;;;2.23;;
13197;SDS011;6664;52.514;13.440;2023-07-31T12:16:14;4.47;;;2.17;;
13197;SDS011;6664;52.514;13.440;2023-07-31T12:19:01;2.17;;;1.97;;
13197;SDS011;6664;52.514;13.440;2023-07-31T12:21:48;1.80;;;1.70;;
13197;SDS011;6664;52.514;13.440;2023-07-31T12:24:33;2.77;;;1.80;;
13197;SDS011;6664;52.514;13.440;2023-07-31T12:27:19;1.93;;;1.80;;
13197;SDS011;6664;52.514;13.440;2023-07-31T12:30:25;2.50;;;2.30;;
13197;SDS011;6664;52.514;13.440;2023-07-31T12:33:16;1.80;;;1.70;;
13197;SDS011;6664;52.514;13.440;2023-07-31T12:36:04;5.03;;;1.63;;
13197;SDS011;6664;52.514;13.440;2023-07-31T12:38:55;7.13;;;1.73;;
13197;SDS011;6664;52.514;13.440;2023-07-31T12:41:43;1.73;;;1.53;;
13197;SDS011;6664;52.514;13.440;2023-07-31T12:44:29;2.30;;;1.17;;
13197;SDS011;6664;52.514;13.440;2023-07-31T12:47:16;1.93;;;1.83;;
13197;SDS011;6664;52.514;13.440;2023-07-31T12:50:04;4.63;;;1.57;;
13197;SDS011;6664;52.514;13.440;2023-07-31T12:52:50;3.40;;;1.83;;
13197;SDS011;6664;52.514;13.440;2023-07-31T12:55:38;1.50;;;1.40;;
13197;SDS011;6664;52.514;13.440;2023-07-31T12:58:23;2.30;;;1.47;;
13197;SDS011;6664;52.514;13.440;2023-07-31T13:01:09;2.20;;;1.40;;
13197;SDS011;6664;52.514;13.440;2023-07-31T13:03:55;3.10;;;1.57;;
13197;SDS011;6664;52.514;13.440;2023-07-31T13:06:43;3.10;;;1.60;;
13197;SDS011;6664;52.514;13.440;2023-07-31T13:09:29;1.60;;;1.40;;
13197;SDS011;6664;52.514;13.440;2023-07-31T13:12:17;2.10;;;1.73;;
13197;SDS011;6664;52.514;13.440;2023-07-31T13:15:03;3.83;;;1.50;;
13197;SDS011;6664;52.514;13.440;2023-07-31T13:17:52;2.53;;;1.63;;
13197;SDS011;6664;52.514;13.440;2023-07-31T13:20:37;1.60;;;1.50;;
13197;SDS011;6664;52.514;13.440;2023-07-31T13:23:25;2.83;;;1.33;;
13197;SDS011;6664;52.514;13.440;2023-07-31T13:26:11;1.33;;;1.10;;
13197;SDS011;6664;52.514;13.440;2023-07-31T13:28:56;2.30;;;1.53;;
13197;SDS011;6664;52.514;13.440;2023-07-31T13:31:42;4.50;;;1.70;;
13197;SDS011;6664;52.514;13.440;2023-07-31T13:34:27;2.27;;;1.80;;
13197;SDS011;6664;52.514;13.440;2023-07-31T13:37:13;2.13;;;1.53;;
13197;SDS011;6664;52.514;13.440;2023-07-31T13:40:01;2.10;;;1.63;;
13197;SDS011;6664;52.514;13.440;2023-07-31T13:42:50;4.50;;;2.20;;
13197;SDS011;6664;52.514;13.440;2023-07-31T13:45:41;2.50;;;1.67;;
13197;SDS011;6664;52.514;13.440;2023-07-31T13:48:30;2.10;;;1.83;;
13197;SDS011;6664;52.514;13.440;2023-07-31T13:51:15;3.00;;;1.67;;
13197;SDS011;6664;52.514;13.440;2023-07-31T13:54:01;2.70;;;1.70;;
13197;SDS011;6664;52.514;13.440;2023-07-31T13:56:47;2.77;;;1.60;;
13197;SDS011;6664;52.514;13.440;2023-07-31T13:59:32;3.27;;;2.00;;
13197;SDS011;6664;52.514;13.440;2023-07-31T14:02:17;2.43;;;1.80;;
13197;SDS011;6664;52.514;13.440;2023-07-31T14:05:07;5.20;;;1.87;;
13197;SDS011;6664;52.514;13.440;2023-07-31T14:07:54;2.20;;;2.00;;
13197;SDS011;6664;52.514;13.440;2023-07-31T14:10:42;2.00;;;1.87;;
13197;SDS011;6664;52.514;13.440;2023-07-31T14:13:28;3.00;;;1.97;;
13197;SDS011;6664;52.514;13.440;2023-07-31T14:16:14;3.43;;;2.30;;
13197;SDS011;6664;52.514;13.440;2023-07-31T14:19:00;2.40;;;2.20;;
13197;SDS011;6664;52.514;13.440;2023-07-31T14:21:48;2.17;;;1.97;;
13197;SDS011;6664;52.514;13.440;2023-07-31T14:24:56;3.10;;;2.00;;
13197;SDS011;6664;52.514;13.440;2023-07-31T14:27:42;4.80;;;2.10;;
13197;SDS011;6664;52.514;13.440;2023-07-31T14:30:30;6.30;;;2.40;;
13197;SDS011;6664;52.514;13.440;2023-07-31T14:33:16;2.20;;;2.00;;
13197;SDS011;6664;52.514;13.440;2023-07-31T14:36:01;3.07;;;1.80;;
13197;SDS011;6664;52.514;13.440;2023-07-31T14:38:50;2.87;;;1.80;;
13197;SDS011;6664;52.514;13.440;2023-07-31T14:41:37;1.57;;;1.47;;
13197;SDS011;6664;52.514;13.440;2023-07-31T14:44:23;2.43;;;2.23;;
13197;SDS011;6664;52.514;13.440;2023-07-31T14:47:09;3.20;;;2.30;;
13197;SDS011;6664;52.514;13.440;2023-07-31T14:49:56;2.30;;;1.97;;
13197;SDS011;6664;52.514;13.440;2023-07-31T14:52:42;3.83;;;1.80;;
13197;SDS011;6664;52.514;13.440;2023-07-31T14:55:29;2.47;;;2.00;;
13197;SDS011;6664;52.514;13.440;2023-07-31T14:58:15;1.57;;;1.47;;
13197;SDS011;6664;52.514;13.440;2023-07-31T15:01:02;2.17;;;1.93;;
13197;SDS011;6664;52.514;13.440;2023-07-31T15:03:47;2.07;;;1.73;;
13197;SDS011;6664;52.514;13.440;2023-07-31T15:06:33;1.53;;;1.43;;
13197;SDS011;6664;52.514;13.440;2023-07-31T15:09:19;2.53;;;1.60;;
13197;SDS011;6664;52.514;13.440;2023-07-31T15:12:05;2.07;;;1.87;;
13197;SDS011;6664;52.514;13.440;2023-07-31T15:14:51;5.47;;;1.83;;
13197;SDS011;6664;52.514;13.440;2023-07-31T15:17:37;3.33;;;2.23;;
13197;SDS011;6664;52.514;13.440;2023-07-31T15:20:23;2.37;;;2.07;;
13197;SDS011;6664;52.514;13.440;2023-07-31T15:23:08;2.20;;;1.80;;
13197;SDS011;6664;52.514;13.440;2023-07-31T15:25:54;2.10;;;1.90;;
13197;SDS011;6664;52.514;13.440;2023-07-31T15:28:40;5.13;;;2.53;;
13197;SDS011;6664;52.514;13.440;2023-07-31T15:31:26;2.87;;;1.80;;
13197;SDS011;6664;52.514;13.440;2023-07-31T15:34:14;3.63;;;2.47;;
13197;SDS011;6664;52.514;13.440;2023-07-31T15:37:00;1.57;;;1.47;;
13197;SDS011;6664;52.514;13.440;2023-07-31T15:39:50;2.20;;;1.77;;
13197;SDS011;6664;52.514;13.440;2023-07-31T15:42:35;3.40;;;2.00;;
13197;SDS011;6664;52.514;13.440;2023-07-31T15:45:24;2.23;;;2.03;;
13197;SDS011;6664;52.514;13.440;2023-07-31T15:48:10;2.00;;;1.80;;
13197;SDS011;6664;52.514;13.440;2023-07-31T15:50:55;2.70;;;1.87;;
13197;SDS011;6664;52.514;13.440;2023-07-31T15:53:41;2.40;;;2.17;;
13197;SDS011;6664;52.514;13.440;2023-07-31T15:56:27;7.27;;;1.97;;
13197;SDS011;6664;52.514;13.440;2023-07-31T15:59:12;3.40;;;1.87;;
13197;SDS011;6664;52.514;13.440;2023-07-31T16:01:58;1.93;;;1.83;;
13197;SDS011;6664;52.514;13.440;2023-07-31T16:04:46;3.13;;;2.20;;
13197;SDS011;6664;52.514;13.440;2023-07-31T16:07:32;5.90;;;2.37;;
13197;SDS011;6664;52.514;13.440;2023-07-31T16:10:17;2.83;;;2.40;;
13197;SDS011;6664;52.514;13.440;2023-07-31T16:13:03;7.93;;;2.67;;
13197;SDS011;6664;52.514;13.440;2023-07-31T16:15:49;4.50;;;2.50;;
13197;SDS011;6664;52.514;13.440;2023-07-31T16:18:34;3.53;;;2.83;;
13197;SDS011;6664;52.514;13.440;2023-07-31T16:21:22;2.30;;;1.80;;
13197;SDS011;6664;52.514;13.440;2023-07-31T16:24:08;3.77;;;1.87;;
13197;SDS011;6664;52.514;13.440;2023-07-31T16:26:53;6.07;;;1.93;;
13197;SDS011;6664;52.514;13.440;2023-07-31T16:29:39;1.83;;;1.70;;
13197;SDS011;6664;52.514;13.440;2023-07-31T16:32:24;1.67;;;1.57;;
13197;SDS011;6664;52.514;13.440;2023-07-31T16:35:12;2.00;;;1.90;;
13197;SDS011;6664;52.514;13.440;2023-07-31T16:37:58;2.77;;;1.90;;
13197;SDS011;6664;52.514;13.440;2023-07-31T16:40:44;2.60;;;2.10;;
13197;SDS011;6664;52.514;13.440;2023-07-31T16:43:31;2.50;;;1.90;;
13197;SDS011;6664;52.514;13.440;2023-07-31T16:46:17;2.23;;;1.70;;
13197;SDS011;6664;52.514;13.440;2023-07-31T16:49:03;4.50;;;1.93;;
13197;SDS011;6664;52.514;13.440;2023-07-31T16:51:50;2.03;;;1.80;;
13197;SDS011;6664;52.514;13.440;2023-07-31T16:54:36;2.23;;;1.63;;
13197;SDS011;6664;52.514;13.440;2023-07-31T16:57:22;1.73;;;1.63;;
13197;SDS011;6664;52.514;13.440;2023-07-31T17:00:10;3.63;;;1.77;;
13197;SDS011;6664;52.514;13.440;2023-07-31T17:02:56;2.93;;;1.80;;